sensor_id;sensor_type;location;lat;lon;timestamp;temperature;humidity
56046;DHT22;41913;51.030;3.706;2023-03-14T00:00:34;19.30;84.70
56046;DHT22;41913;51.030;3.706;2023-03-14T00:03:00;19.30;84.70
56046;DHT22;41913;51.030;3.706;2023-03-14T00:05:25;19.30;84.70
56046;DHT22;41913;51.030;3.706;2023-03-14T00:07:51;19.30;84.70
56046;DHT22;41913;51.030;3.706;2023-03-14T00:10:17;19.30;84.70
56046;DHT22;41913;51.030;3.706;2023-03-14T00:12:43;19.20;84.60
56046;DHT22;41913;51.030;3.706;2023-03-14T00:15:10;19.20;84.60
56046;DHT22;41913;51.030;3.706;2023-03-14T00:17:37;19.20;84.60
56046;DHT22;41913;51.030;3.706;2023-03-14T00:20:04;19.20;84.60
56046;DHT22;41913;51.030;3.706;2023-03-14T00:22:40;19.20;84.60
56046;DHT22;41913;51.030;3.706;2023-03-14T00:25:08;19.20;84.60
56046;DHT22;41913;51.030;3.706;2023-03-14T00:27:34;19.20;84.50
56046;DHT22;41913;51.030;3.706;2023-03-14T00:30:00;19.20;84.50
56046;DHT22;41913;51.030;3.706;2023-03-14T00:32:26;19.20;84.50
56046;DHT22;41913;51.030;3.706;2023-03-14T00:34:52;19.20;84.40
56046;DHT22;41913;51.030;3.706;2023-03-14T00:37:17;19.20;84.40
56046;DHT22;41913;51.030;3.706;2023-03-14T00:39:43;19.20;84.40
56046;DHT22;41913;51.030;3.706;2023-03-14T00:42:09;19.20;84.30
56046;DHT22;41913;51.030;3.706;2023-03-14T00:44:35;19.20;84.30
56046;DHT22;41913;51.030;3.706;2023-03-14T00:47:00;19.20;84.30
56046;DHT22;41913;51.030;3.706;2023-03-14T00:49:26;19.20;84.30
56046;DHT22;41913;51.030;3.706;2023-03-14T00:51:52;19.20;84.30
56046;DHT22;41913;51.030;3.706;2023-03-14T00:54:20;19.20;84.30
56046;DHT22;41913;51.030;3.706;2023-03-14T00:56:46;19.20;84.30
56046;DHT22;41913;51.030;3.706;2023-03-14T00:59:12;19.10;84.20
56046;DHT22;41913;51.030;3.706;2023-03-14T01:01:38;19.20;84.20
56046;DHT22;41913;51.030;3.706;2023-03-14T01:04:04;19.20;84.20
56046;DHT22;41913;51.030;3.706;2023-03-14T01:06:30;19.20;84.20
56046;DHT22;41913;51.030;3.706;2023-03-14T01:08:57;19.10;84.10
56046;DHT22;41913;51.030;3.706;2023-03-14T01:11:28;19.20;84.20
56046;DHT22;41913;51.030;3.706;2023-03-14T01:13:55;19.20;84.10
56046;DHT22;41913;51.030;3.706;2023-03-14T01:16:23;19.10;84.10
56046;DHT22;41913;51.030;3.706;2023-03-14T01:18:50;19.20;84.10
56046;DHT22;41913;51.030;3.706;2023-03-14T01:21:17;19.20;84.10
56046;DHT22;41913;51.030;3.706;2023-03-14T01:23:44;19.10;84.10
56046;DHT22;41913;51.030;3.706;2023-03-14T01:26:12;19.10;84.10
56046;DHT22;41913;51.030;3.706;2023-03-14T01:28:38;19.10;84.00
56046;DHT22;41913;51.030;3.706;2023-03-14T01:31:05;19.10;84.10
56046;DHT22;41913;51.030;3.706;2023-03-14T01:33:31;19.10;84.00
56046;DHT22;41913;51.030;3.706;2023-03-14T01:35:57;19.10;84.00
56046;DHT22;41913;51.030;3.706;2023-03-14T01:38:23;19.10;84.00
56046;DHT22;41913;51.030;3.706;2023-03-14T01:40:48;19.10;84.00
56046;DHT22;41913;51.030;3.706;2023-03-14T01:43:18;19.10;84.00
56046;DHT22;41913;51.030;3.706;2023-03-14T01:48:37;19.10;84.00
56046;DHT22;41913;51.030;3.706;2023-03-14T01:51:08;19.10;84.00
56046;DHT22;41913;51.030;3.706;2023-03-14T01:53:36;19.10;83.90
56046;DHT22;41913;51.030;3.706;2023-03-14T01:56:02;19.10;83.90
56046;DHT22;41913;51.030;3.706;2023-03-14T01:58:30;19.10;83.90
56046;DHT22;41913;51.030;3.706;2023-03-14T02:00:58;19.10;83.90
56046;DHT22;41913;51.030;3.706;2023-03-14T02:03:25;19.10;83.80
56046;DHT22;41913;51.030;3.706;2023-03-14T02:05:54;19.10;83.80
56046;DHT22;41913;51.030;3.706;2023-03-14T02:08:22;19.10;83.80
56046;DHT22;41913;51.030;3.706;2023-03-14T02:10:50;19.10;83.80
56046;DHT22;41913;51.030;3.706;2023-03-14T02:13:17;19.10;83.80
56046;DHT22;41913;51.030;3.706;2023-03-14T02:15:44;19.10;83.80
56046;DHT22;41913;51.030;3.706;2023-03-14T02:18:10;19.10;83.80
56046;DHT22;41913;51.030;3.706;2023-03-14T02:26:38;19.10;83.80
56046;DHT22;41913;51.030;3.706;2023-03-14T02:29:06;19.10;83.80
56046;DHT22;41913;51.030;3.706;2023-03-14T02:31:32;19.00;83.70
56046;DHT22;41913;51.030;3.706;2023-03-14T02:33:59;19.00;83.70
56046;DHT22;41913;51.030;3.706;2023-03-14T02:36:26;19.00;84.30
56046;DHT22;41913;51.030;3.706;2023-03-14T02:38:58;19.00;83.70
56046;DHT22;41913;51.030;3.706;2023-03-14T02:41:26;19.00;83.70
56046;DHT22;41913;51.030;3.706;2023-03-14T02:43:52;19.00;83.60
56046;DHT22;41913;51.030;3.706;2023-03-14T02:46:20;19.00;83.60
56046;DHT22;41913;51.030;3.706;2023-03-14T02:48:50;19.00;83.60
56046;DHT22;41913;51.030;3.706;2023-03-14T02:51:17;19.00;83.60
56046;DHT22;41913;51.030;3.706;2023-03-14T02:53:43;19.00;83.60
56046;DHT22;41913;51.030;3.706;2023-03-14T02:56:09;19.00;83.60
56046;DHT22;41913;51.030;3.706;2023-03-14T02:58:36;19.00;83.60
56046;DHT22;41913;51.030;3.706;2023-03-14T03:01:02;19.00;83.60
56046;DHT22;41913;51.030;3.706;2023-03-14T03:03:27;19.00;83.60
56046;DHT22;41913;51.030;3.706;2023-03-14T03:05:55;19.00;83.60
56046;DHT22;41913;51.030;3.706;2023-03-14T03:08:24;19.00;83.60
56046;DHT22;41913;51.030;3.706;2023-03-14T03:10:51;19.00;83.60
56046;DHT22;41913;51.030;3.706;2023-03-14T03:13:17;19.00;83.50
56046;DHT22;41913;51.030;3.706;2023-03-14T03:15:44;19.00;83.50
56046;DHT22;41913;51.030;3.706;2023-03-14T03:18:10;19.00;83.50
56046;DHT22;41913;51.030;3.706;2023-03-14T03:20:36;19.00;83.50
56046;DHT22;41913;51.030;3.706;2023-03-14T03:23:02;19.00;83.50
56046;DHT22;41913;51.030;3.706;2023-03-14T03:25:28;19.00;83.50
56046;DHT22;41913;51.030;3.706;2023-03-14T03:27:54;19.00;83.50
56046;DHT22;41913;51.030;3.706;2023-03-14T03:30:20;19.00;83.50
56046;DHT22;41913;51.030;3.706;2023-03-14T03:32:45;19.00;83.50
56046;DHT22;41913;51.030;3.706;2023-03-14T03:35:11;19.00;83.40
56046;DHT22;41913;51.030;3.706;2023-03-14T03:37:37;19.00;83.40
56046;DHT22;41913;51.030;3.706;2023-03-14T03:40:05;19.00;83.40
56046;DHT22;41913;51.030;3.706;2023-03-14T03:42:32;19.00;83.40
56046;DHT22;41913;51.030;3.706;2023-03-14T03:44:59;19.00;83.40
56046;DHT22;41913;51.030;3.706;2023-03-14T03:47:25;19.00;83.40
56046;DHT22;41913;51.030;3.706;2023-03-14T03:49:51;19.00;83.30
56046;DHT22;41913;51.030;3.706;2023-03-14T03:52:17;19.00;83.30
56046;DHT22;41913;51.030;3.706;2023-03-14T03:54:42;18.90;83.30
56046;DHT22;41913;51.030;3.706;2023-03-14T03:57:08;19.00;83.30
56046;DHT22;41913;51.030;3.706;2023-03-14T03:59:34;18.90;83.30
56046;DHT22;41913;51.030;3.706;2023-03-14T04:02:00;18.90;83.30
56046;DHT22;41913;51.030;3.706;2023-03-14T04:04:25;18.90;83.20
56046;DHT22;41913;51.030;3.706;2023-03-14T04:06:51;18.90;83.20
56046;DHT22;41913;51.030;3.706;2023-03-14T04:09:17;18.90;83.20
56046;DHT22;41913;51.030;3.706;2023-03-14T04:11:42;18.90;83.20
56046;DHT22;41913;51.030;3.706;2023-03-14T04:14:08;18.90;83.20
56046;DHT22;41913;51.030;3.706;2023-03-14T04:16:34;18.90;83.30
56046;DHT22;41913;51.030;3.706;2023-03-14T04:19:00;18.90;83.20
56046;DHT22;41913;51.030;3.706;2023-03-14T04:21:26;18.90;83.20
56046;DHT22;41913;51.030;3.706;2023-03-14T04:23:52;18.90;83.20
56046;DHT22;41913;51.030;3.706;2023-03-14T04:26:18;18.90;83.20
56046;DHT22;41913;51.030;3.706;2023-03-14T04:28:43;18.90;83.20
56046;DHT22;41913;51.030;3.706;2023-03-14T04:31:20;18.90;83.20
56046;DHT22;41913;51.030;3.706;2023-03-14T04:33:46;18.90;83.20
56046;DHT22;41913;51.030;3.706;2023-03-14T04:36:13;18.90;83.20
56046;DHT22;41913;51.030;3.706;2023-03-14T04:38:39;18.90;83.20
56046;DHT22;41913;51.030;3.706;2023-03-14T04:41:05;18.90;83.20
56046;DHT22;41913;51.030;3.706;2023-03-14T04:43:31;18.90;83.20
56046;DHT22;41913;51.030;3.706;2023-03-14T04:45:57;18.90;83.10
56046;DHT22;41913;51.030;3.706;2023-03-14T04:48:24;18.90;83.10
56046;DHT22;41913;51.030;3.706;2023-03-14T04:50:50;18.90;83.10
56046;DHT22;41913;51.030;3.706;2023-03-14T04:53:16;18.90;83.10
56046;DHT22;41913;51.030;3.706;2023-03-14T04:55:46;18.90;83.10
56046;DHT22;41913;51.030;3.706;2023-03-14T04:58:12;18.90;83.10
56046;DHT22;41913;51.030;3.706;2023-03-14T05:00:38;18.90;83.60
56046;DHT22;41913;51.030;3.706;2023-03-14T05:03:03;18.90;83.00
56046;DHT22;41913;51.030;3.706;2023-03-14T05:05:29;18.90;83.00
56046;DHT22;41913;51.030;3.706;2023-03-14T05:07:55;18.90;83.00
56046;DHT22;41913;51.030;3.706;2023-03-14T05:10:20;18.90;83.00
56046;DHT22;41913;51.030;3.706;2023-03-14T05:12:46;18.90;83.00
56046;DHT22;41913;51.030;3.706;2023-03-14T05:15:12;18.90;83.00
56046;DHT22;41913;51.030;3.706;2023-03-14T05:17:37;18.90;83.00
56046;DHT22;41913;51.030;3.706;2023-03-14T05:20:03;18.90;83.00
56046;DHT22;41913;51.030;3.706;2023-03-14T05:22:38;18.90;83.00
56046;DHT22;41913;51.030;3.706;2023-03-14T05:25:05;18.80;82.90
56046;DHT22;41913;51.030;3.706;2023-03-14T05:27:31;18.80;82.90
56046;DHT22;41913;51.030;3.706;2023-03-14T05:29:57;18.80;82.90
56046;DHT22;41913;51.030;3.706;2023-03-14T05:32:23;18.80;82.90
56046;DHT22;41913;51.030;3.706;2023-03-14T05:34:48;18.80;82.90
56046;DHT22;41913;51.030;3.706;2023-03-14T05:37:15;18.90;82.90
56046;DHT22;41913;51.030;3.706;2023-03-14T05:39:41;18.80;82.90
56046;DHT22;41913;51.030;3.706;2023-03-14T05:42:06;18.80;82.90
56046;DHT22;41913;51.030;3.706;2023-03-14T05:44:32;18.80;82.90
56046;DHT22;41913;51.030;3.706;2023-03-14T05:46:58;18.80;82.90
56046;DHT22;41913;51.030;3.706;2023-03-14T05:49:23;18.80;82.90
56046;DHT22;41913;51.030;3.706;2023-03-14T05:51:49;18.80;82.90
56046;DHT22;41913;51.030;3.706;2023-03-14T05:54:15;18.80;82.90
56046;DHT22;41913;51.030;3.706;2023-03-14T05:56:40;18.80;82.90
56046;DHT22;41913;51.030;3.706;2023-03-14T05:59:06;18.80;82.90
56046;DHT22;41913;51.030;3.706;2023-03-14T06:01:34;18.80;82.90
56046;DHT22;41913;51.030;3.706;2023-03-14T06:04:00;18.80;82.90
56046;DHT22;41913;51.030;3.706;2023-03-14T06:06:25;18.80;82.90
56046;DHT22;41913;51.030;3.706;2023-03-14T06:08:51;18.80;82.90
56046;DHT22;41913;51.030;3.706;2023-03-14T06:11:17;18.80;82.90
56046;DHT22;41913;51.030;3.706;2023-03-14T06:13:43;18.80;82.90
56046;DHT22;41913;51.030;3.706;2023-03-14T06:16:09;18.80;82.90
56046;DHT22;41913;51.030;3.706;2023-03-14T06:18:34;18.80;82.90
56046;DHT22;41913;51.030;3.706;2023-03-14T06:21:00;18.80;82.90
56046;DHT22;41913;51.030;3.706;2023-03-14T06:23:26;18.80;82.90
56046;DHT22;41913;51.030;3.706;2023-03-14T06:25:52;18.80;82.90
56046;DHT22;41913;51.030;3.706;2023-03-14T06:28:18;18.80;82.90
56046;DHT22;41913;51.030;3.706;2023-03-14T06:30:43;18.80;82.90
56046;DHT22;41913;51.030;3.706;2023-03-14T06:33:09;18.80;82.90
56046;DHT22;41913;51.030;3.706;2023-03-14T06:35:35;18.80;82.90
56046;DHT22;41913;51.030;3.706;2023-03-14T06:38:02;18.90;82.90
56046;DHT22;41913;51.030;3.706;2023-03-14T06:40:28;18.90;82.90
56046;DHT22;41913;51.030;3.706;2023-03-14T06:42:53;19.00;83.00
56046;DHT22;41913;51.030;3.706;2023-03-14T06:45:19;19.10;83.20
56046;DHT22;41913;51.030;3.706;2023-03-14T06:47:45;19.30;83.40
56046;DHT22;41913;51.030;3.706;2023-03-14T06:50:11;19.40;83.70
56046;DHT22;41913;51.030;3.706;2023-03-14T06:52:37;19.50;83.90
56046;DHT22;41913;51.030;3.706;2023-03-14T06:55:02;19.50;84.00
56046;DHT22;41913;51.030;3.706;2023-03-14T06:57:28;19.60;84.00
56046;DHT22;41913;51.030;3.706;2023-03-14T06:59:54;19.70;84.00
56046;DHT22;41913;51.030;3.706;2023-03-14T07:02:20;19.70;84.00
56046;DHT22;41913;51.030;3.706;2023-03-14T07:04:47;19.80;84.00
56046;DHT22;41913;51.030;3.706;2023-03-14T07:07:13;19.80;83.90
56046;DHT22;41913;51.030;3.706;2023-03-14T07:09:38;19.90;84.00
56046;DHT22;41913;51.030;3.706;2023-03-14T07:12:04;20.00;84.00
56046;DHT22;41913;51.030;3.706;2023-03-14T07:14:31;20.00;84.00
56046;DHT22;41913;51.030;3.706;2023-03-14T07:16:58;20.10;84.10
56046;DHT22;41913;51.030;3.706;2023-03-14T07:19:24;20.20;84.20
56046;DHT22;41913;51.030;3.706;2023-03-14T07:21:49;20.20;84.20
56046;DHT22;41913;51.030;3.706;2023-03-14T07:24:16;20.30;84.30
56046;DHT22;41913;51.030;3.706;2023-03-14T07:26:42;20.40;84.40
56046;DHT22;41913;51.030;3.706;2023-03-14T07:29:07;20.40;84.30
56046;DHT22;41913;51.030;3.706;2023-03-14T07:31:33;20.50;84.40
56046;DHT22;41913;51.030;3.706;2023-03-14T07:33:59;20.50;84.30
56046;DHT22;41913;51.030;3.706;2023-03-14T07:36:25;20.60;84.40
56046;DHT22;41913;51.030;3.706;2023-03-14T07:38:50;20.60;84.30
56046;DHT22;41913;51.030;3.706;2023-03-14T07:41:18;20.70;84.30
56046;DHT22;41913;51.030;3.706;2023-03-14T07:43:44;20.70;84.30
56046;DHT22;41913;51.030;3.706;2023-03-14T07:46:09;20.80;84.20
56046;DHT22;41913;51.030;3.706;2023-03-14T07:48:35;20.80;84.10
56046;DHT22;41913;51.030;3.706;2023-03-14T07:51:01;20.90;84.10
56046;DHT22;41913;51.030;3.706;2023-03-14T07:53:26;20.90;84.00
56046;DHT22;41913;51.030;3.706;2023-03-14T07:55:53;20.90;83.90
56046;DHT22;41913;51.030;3.706;2023-03-14T07:58:20;20.90;83.90
56046;DHT22;41913;51.030;3.706;2023-03-14T08:00:47;20.90;83.90
56046;DHT22;41913;51.030;3.706;2023-03-14T08:03:14;20.90;83.90
56046;DHT22;41913;51.030;3.706;2023-03-14T08:05:40;20.90;83.70
56046;DHT22;41913;51.030;3.706;2023-03-14T08:08:06;20.90;83.70
56046;DHT22;41913;51.030;3.706;2023-03-14T08:10:32;20.90;83.60
56046;DHT22;41913;51.030;3.706;2023-03-14T08:12:59;21.00;83.60
56046;DHT22;41913;51.030;3.706;2023-03-14T08:15:26;21.00;83.50
56046;DHT22;41913;51.030;3.706;2023-03-14T08:17:52;21.00;83.50
56046;DHT22;41913;51.030;3.706;2023-03-14T08:20:21;21.10;83.60
56046;DHT22;41913;51.030;3.706;2023-03-14T08:22:47;21.10;83.50
56046;DHT22;41913;51.030;3.706;2023-03-14T08:25:13;21.10;83.50
56046;DHT22;41913;51.030;3.706;2023-03-14T08:27:38;21.20;83.40
56046;DHT22;41913;51.030;3.706;2023-03-14T08:30:15;21.20;83.30
56046;DHT22;41913;51.030;3.706;2023-03-14T08:32:41;21.20;83.20
56046;DHT22;41913;51.030;3.706;2023-03-14T08:35:07;21.30;83.00
56046;DHT22;41913;51.030;3.706;2023-03-14T08:37:35;21.30;82.90
56046;DHT22;41913;51.030;3.706;2023-03-14T08:40:02;21.30;82.70
56046;DHT22;41913;51.030;3.706;2023-03-14T08:42:32;21.30;82.60
56046;DHT22;41913;51.030;3.706;2023-03-14T08:45:00;21.30;82.50
56046;DHT22;41913;51.030;3.706;2023-03-14T08:47:25;21.30;82.40
56046;DHT22;41913;51.030;3.706;2023-03-14T08:49:51;21.30;82.40
56046;DHT22;41913;51.030;3.706;2023-03-14T08:52:17;21.30;82.30
56046;DHT22;41913;51.030;3.706;2023-03-14T08:54:46;21.30;82.30
56046;DHT22;41913;51.030;3.706;2023-03-14T08:57:12;21.30;82.20
56046;DHT22;41913;51.030;3.706;2023-03-14T08:59:38;21.30;82.20
56046;DHT22;41913;51.030;3.706;2023-03-14T09:02:04;21.40;82.10
56046;DHT22;41913;51.030;3.706;2023-03-14T09:04:31;21.30;82.00
56046;DHT22;41913;51.030;3.706;2023-03-14T09:06:57;21.40;81.90
56046;DHT22;41913;51.030;3.706;2023-03-14T09:09:26;21.40;81.80
56046;DHT22;41913;51.030;3.706;2023-03-14T09:11:56;21.50;81.60
56046;DHT22;41913;51.030;3.706;2023-03-14T09:14:22;21.50;81.50
56046;DHT22;41913;51.030;3.706;2023-03-14T09:16:48;21.50;81.30
56046;DHT22;41913;51.030;3.706;2023-03-14T09:19:14;21.50;81.20
56046;DHT22;41913;51.030;3.706;2023-03-14T09:21:39;21.60;81.20
56046;DHT22;41913;51.030;3.706;2023-03-14T09:24:05;21.60;81.00
56046;DHT22;41913;51.030;3.706;2023-03-14T09:26:31;21.70;81.00
56046;DHT22;41913;51.030;3.706;2023-03-14T09:28:57;21.70;80.80
56046;DHT22;41913;51.030;3.706;2023-03-14T09:31:23;21.70;80.70
56046;DHT22;41913;51.030;3.706;2023-03-14T09:33:48;21.70;80.60
56046;DHT22;41913;51.030;3.706;2023-03-14T09:36:14;21.60;80.50
56046;DHT22;41913;51.030;3.706;2023-03-14T09:38:40;21.70;80.50
56046;DHT22;41913;51.030;3.706;2023-03-14T09:41:18;21.70;80.50
56046;DHT22;41913;51.030;3.706;2023-03-14T09:43:47;21.60;80.40
56046;DHT22;41913;51.030;3.706;2023-03-14T09:46:16;21.60;80.40
56046;DHT22;41913;51.030;3.706;2023-03-14T09:48:43;21.70;80.40
56046;DHT22;41913;51.030;3.706;2023-03-14T09:51:18;21.70;80.30
56046;DHT22;41913;51.030;3.706;2023-03-14T09:53:48;21.70;80.30
56046;DHT22;41913;51.030;3.706;2023-03-14T09:56:29;21.70;80.20
56046;DHT22;41913;51.030;3.706;2023-03-14T09:58:57;21.70;80.10
56046;DHT22;41913;51.030;3.706;2023-03-14T10:01:29;21.70;80.10
56046;DHT22;41913;51.030;3.706;2023-03-14T10:03:57;21.70;80.00
56046;DHT22;41913;51.030;3.706;2023-03-14T10:06:27;21.80;80.00
56046;DHT22;41913;51.030;3.706;2023-03-14T10:08:55;21.80;79.80
56046;DHT22;41913;51.030;3.706;2023-03-14T10:11:22;21.80;79.80
56046;DHT22;41913;51.030;3.706;2023-03-14T10:14:11;21.80;79.70
56046;DHT22;41913;51.030;3.706;2023-03-14T10:16:43;21.80;79.60
56046;DHT22;41913;51.030;3.706;2023-03-14T10:19:12;21.80;79.60
56046;DHT22;41913;51.030;3.706;2023-03-14T10:21:40;21.80;79.50
56046;DHT22;41913;51.030;3.706;2023-03-14T10:24:22;21.80;79.50
56046;DHT22;41913;51.030;3.706;2023-03-14T10:27:20;21.80;79.50
56046;DHT22;41913;51.030;3.706;2023-03-14T10:29:57;21.80;79.40
56046;DHT22;41913;51.030;3.706;2023-03-14T10:32:37;21.80;79.30
56046;DHT22;41913;51.030;3.706;2023-03-14T10:35:23;21.80;79.20
56046;DHT22;41913;51.030;3.706;2023-03-14T10:38:00;21.80;79.10
56046;DHT22;41913;51.030;3.706;2023-03-14T10:40:53;21.90;79.00
56046;DHT22;41913;51.030;3.706;2023-03-14T10:43:23;21.90;78.90
56046;DHT22;41913;51.030;3.706;2023-03-14T10:45:53;21.90;78.90
56046;DHT22;41913;51.030;3.706;2023-03-14T10:51:06;21.90;78.70
56046;DHT22;41913;51.030;3.706;2023-03-14T10:53:44;21.90;78.60
56046;DHT22;41913;51.030;3.706;2023-03-14T10:56:15;21.90;78.60
56046;DHT22;41913;51.030;3.706;2023-03-14T10:58:44;21.90;78.50
56046;DHT22;41913;51.030;3.706;2023-03-14T11:01:25;22.00;78.60
56046;DHT22;41913;51.030;3.706;2023-03-14T11:15:17;21.80;78.30
56046;DHT22;41913;51.030;3.706;2023-03-14T11:29:01;21.60;78.40
56046;DHT22;41913;51.030;3.706;2023-03-14T11:31:29;21.60;78.40
56046;DHT22;41913;51.030;3.706;2023-03-14T11:34:27;21.60;78.40
56046;DHT22;41913;51.030;3.706;2023-03-14T11:37:05;21.50;78.40
56046;DHT22;41913;51.030;3.706;2023-03-14T11:39:45;21.50;78.40
56046;DHT22;41913;51.030;3.706;2023-03-14T11:42:15;21.40;78.40
56046;DHT22;41913;51.030;3.706;2023-03-14T11:44:45;21.40;78.50
56046;DHT22;41913;51.030;3.706;2023-03-14T11:47:53;21.40;78.50
56046;DHT22;41913;51.030;3.706;2023-03-14T11:50:19;21.40;78.60
56046;DHT22;41913;51.030;3.706;2023-03-14T11:52:51;21.30;78.60
56046;DHT22;41913;51.030;3.706;2023-03-14T11:55:34;21.30;78.60
56046;DHT22;41913;51.030;3.706;2023-03-14T11:58:17;21.30;78.70
56046;DHT22;41913;51.030;3.706;2023-03-14T12:00:47;21.20;78.70
56046;DHT22;41913;51.030;3.706;2023-03-14T12:12:10;21.20;78.90
56046;DHT22;41913;51.030;3.706;2023-03-14T12:14:33;21.10;79.00
56046;DHT22;41913;51.030;3.706;2023-03-14T12:17:20;21.10;79.00
56046;DHT22;41913;51.030;3.706;2023-03-14T12:19:47;21.10;79.00
56046;DHT22;41913;51.030;3.706;2023-03-14T12:22:41;21.00;79.00
56046;DHT22;41913;51.030;3.706;2023-03-14T12:25:26;21.00;79.10
56046;DHT22;41913;51.030;3.706;2023-03-14T12:38:06;20.90;79.20
56046;DHT22;41913;51.030;3.706;2023-03-14T12:40:41;20.90;79.20
56046;DHT22;41913;51.030;3.706;2023-03-14T12:48:39;20.80;79.30
56046;DHT22;41913;51.030;3.706;2023-03-14T12:51:16;20.80;79.30
56046;DHT22;41913;51.030;3.706;2023-03-14T12:54:04;20.80;79.40
56046;DHT22;41913;51.030;3.706;2023-03-14T13:01:33;20.70;79.40
56046;DHT22;41913;51.030;3.706;2023-03-14T13:04:07;20.70;79.40
56046;DHT22;41913;51.030;3.706;2023-03-14T13:06:50;20.70;79.50
56046;DHT22;41913;51.030;3.706;2023-03-14T13:12:17;20.60;79.50
56046;DHT22;41913;51.030;3.706;2023-03-14T13:14:48;20.60;79.50
56046;DHT22;41913;51.030;3.706;2023-03-14T13:17:32;20.60;79.60
56046;DHT22;41913;51.030;3.706;2023-03-14T13:20:03;20.60;79.60
56046;DHT22;41913;51.030;3.706;2023-03-14T13:22:33;20.60;79.60
56046;DHT22;41913;51.030;3.706;2023-03-14T13:25:09;20.60;79.60
56046;DHT22;41913;51.030;3.706;2023-03-14T13:27:35;20.60;79.70
56046;DHT22;41913;51.030;3.706;2023-03-14T13:32:43;20.50;79.70
56046;DHT22;41913;51.030;3.706;2023-03-14T13:35:18;20.50;79.70
56046;DHT22;41913;51.030;3.706;2023-03-14T13:37:44;20.50;79.70
56046;DHT22;41913;51.030;3.706;2023-03-14T13:40:20;20.50;79.70
56046;DHT22;41913;51.030;3.706;2023-03-14T13:42:46;20.50;79.70
56046;DHT22;41913;51.030;3.706;2023-03-14T13:45:13;20.50;79.70
56046;DHT22;41913;51.030;3.706;2023-03-14T13:47:39;20.50;79.70
56046;DHT22;41913;51.030;3.706;2023-03-14T13:50:15;20.40;79.80
56046;DHT22;41913;51.030;3.706;2023-03-14T13:52:40;20.40;79.80
56046;DHT22;41913;51.030;3.706;2023-03-14T13:55:14;20.40;79.80
56046;DHT22;41913;51.030;3.706;2023-03-14T13:57:51;20.40;79.80
56046;DHT22;41913;51.030;3.706;2023-03-14T14:00:25;20.40;79.80
56046;DHT22;41913;51.030;3.706;2023-03-14T14:02:53;20.40;79.80
56046;DHT22;41913;51.030;3.706;2023-03-14T14:05:19;20.40;79.80
56046;DHT22;41913;51.030;3.706;2023-03-14T14:07:44;20.30;79.70
56046;DHT22;41913;51.030;3.706;2023-03-14T14:10:13;20.30;79.80
56046;DHT22;41913;51.030;3.706;2023-03-14T14:12:53;20.30;79.80
56046;DHT22;41913;51.030;3.706;2023-03-14T14:15:39;20.30;79.80
56046;DHT22;41913;51.030;3.706;2023-03-14T14:18:11;20.30;79.80
56046;DHT22;41913;51.030;3.706;2023-03-14T14:20:44;20.30;79.90
56046;DHT22;41913;51.030;3.706;2023-03-14T14:23:19;20.30;79.90
56046;DHT22;41913;51.030;3.706;2023-03-14T14:25:54;20.20;79.90
56046;DHT22;41913;51.030;3.706;2023-03-14T14:28:29;20.20;79.90
56046;DHT22;41913;51.030;3.706;2023-03-14T14:31:00;20.20;79.90
56046;DHT22;41913;51.030;3.706;2023-03-14T14:33:26;20.20;79.90
56046;DHT22;41913;51.030;3.706;2023-03-14T14:35:59;20.20;79.90
56046;DHT22;41913;51.030;3.706;2023-03-14T14:38:26;20.20;79.90
56046;DHT22;41913;51.030;3.706;2023-03-14T14:40:54;20.20;79.90
56046;DHT22;41913;51.030;3.706;2023-03-14T14:43:22;20.20;79.90
56046;DHT22;41913;51.030;3.706;2023-03-14T14:45:51;20.20;79.90
56046;DHT22;41913;51.030;3.706;2023-03-14T14:48:23;20.10;79.90
56046;DHT22;41913;51.030;3.706;2023-03-14T14:53:59;20.10;79.90
56046;DHT22;41913;51.030;3.706;2023-03-14T14:56:19;20.10;79.90
56046;DHT22;41913;51.030;3.706;2023-03-14T14:58:48;20.10;79.90
56046;DHT22;41913;51.030;3.706;2023-03-14T15:03:43;20.10;79.90
56046;DHT22;41913;51.030;3.706;2023-03-14T15:06:12;20.10;79.90
56046;DHT22;41913;51.030;3.706;2023-03-14T15:08:38;20.00;79.90
56046;DHT22;41913;51.030;3.706;2023-03-14T15:11:04;20.00;79.90
56046;DHT22;41913;51.030;3.706;2023-03-14T15:13:30;20.00;79.90
56046;DHT22;41913;51.030;3.706;2023-03-14T15:15:56;20.00;79.90
56046;DHT22;41913;51.030;3.706;2023-03-14T15:18:25;20.00;80.40
56046;DHT22;41913;51.030;3.706;2023-03-14T15:20:54;20.00;79.90
56046;DHT22;41913;51.030;3.706;2023-03-14T15:23:20;20.00;79.90
56046;DHT22;41913;51.030;3.706;2023-03-14T15:25:47;20.00;79.90
56046;DHT22;41913;51.030;3.706;2023-03-14T15:28:20;20.00;79.90
56046;DHT22;41913;51.030;3.706;2023-03-14T15:30:50;20.00;79.90
56046;DHT22;41913;51.030;3.706;2023-03-14T15:33:17;19.90;79.80
56046;DHT22;41913;51.030;3.706;2023-03-14T15:35:43;19.90;79.80
56046;DHT22;41913;51.030;3.706;2023-03-14T15:38:18;19.90;79.80
56046;DHT22;41913;51.030;3.706;2023-03-14T15:40:46;19.90;79.80
56046;DHT22;41913;51.030;3.706;2023-03-14T15:43:12;19.90;79.80
56046;DHT22;41913;51.030;3.706;2023-03-14T15:45:38;19.90;79.80
56046;DHT22;41913;51.030;3.706;2023-03-14T15:48:05;19.90;79.70
56046;DHT22;41913;51.030;3.706;2023-03-14T15:50:31;19.90;79.70
56046;DHT22;41913;51.030;3.706;2023-03-14T15:52:57;19.90;79.70
56046;DHT22;41913;51.030;3.706;2023-03-14T15:55:23;19.90;79.70
56046;DHT22;41913;51.030;3.706;2023-03-14T15:57:48;19.90;79.70
56046;DHT22;41913;51.030;3.706;2023-03-14T16:00:18;19.80;79.60
56046;DHT22;41913;51.030;3.706;2023-03-14T16:02:44;19.80;79.60
56046;DHT22;41913;51.030;3.706;2023-03-14T16:05:11;19.80;79.60
56046;DHT22;41913;51.030;3.706;2023-03-14T16:07:38;19.80;79.60
56046;DHT22;41913;51.030;3.706;2023-03-14T16:10:08;19.80;79.60
56046;DHT22;41913;51.030;3.706;2023-03-14T16:12:34;19.80;79.60
56046;DHT22;41913;51.030;3.706;2023-03-14T16:15:00;19.80;79.70
56046;DHT22;41913;51.030;3.706;2023-03-14T16:17:26;19.80;79.60
56046;DHT22;41913;51.030;3.706;2023-03-14T16:19:51;19.80;79.60
56046;DHT22;41913;51.030;3.706;2023-03-14T16:22:17;19.80;79.70
56046;DHT22;41913;51.030;3.706;2023-03-14T16:24:43;19.80;79.60
56046;DHT22;41913;51.030;3.706;2023-03-14T16:27:09;19.80;79.70
56046;DHT22;41913;51.030;3.706;2023-03-14T16:29:34;19.80;79.70
56046;DHT22;41913;51.030;3.706;2023-03-14T16:32:00;19.80;79.70
56046;DHT22;41913;51.030;3.706;2023-03-14T16:34:26;19.70;79.70
56046;DHT22;41913;51.030;3.706;2023-03-14T16:36:51;19.70;79.60
56046;DHT22;41913;51.030;3.706;2023-03-14T16:39:20;19.70;79.70
56046;DHT22;41913;51.030;3.706;2023-03-14T16:41:47;19.70;79.70
56046;DHT22;41913;51.030;3.706;2023-03-14T16:44:13;19.70;79.70
56046;DHT22;41913;51.030;3.706;2023-03-14T16:46:38;19.70;79.70
56046;DHT22;41913;51.030;3.706;2023-03-14T16:49:04;19.70;79.70
56046;DHT22;41913;51.030;3.706;2023-03-14T16:51:31;19.70;79.70